createdAt,value
2023-04-01T00:02:01.039Z,98947.69
2023-04-01T00:04:28.774Z,98950.16
2023-04-01T00:06:56.742Z,98951.97
2023-04-01T00:09:24.471Z,98948.03
2023-04-01T00:11:52.202Z,98951.50
2023-04-01T00:14:20.389Z,98953.13
2023-04-01T00:16:49.618Z,98946.69
2023-04-01T00:19:17.453Z,98945.84
2023-04-01T00:21:45.135Z,98947.03
2023-04-01T00:24:12.855Z,98947.84
2023-04-01T00:26:41.754Z,98941.41
2023-04-01T00:29:09.650Z,98954.59
2023-04-01T00:31:37.358Z,98948.31
2023-04-01T00:34:06.590Z,98936.78
2023-04-01T00:36:35.160Z,98942.22
2023-04-01T00:39:02.889Z,98941.56
2023-04-01T00:41:30.551Z,98937.28
2023-04-01T00:44:20.349Z,98940.09
2023-04-01T00:46:48.693Z,98934.81
2023-04-01T00:49:19.927Z,98944.22
2023-04-01T00:51:49.023Z,98939.28
2023-04-01T00:54:18.116Z,98936.78
2023-04-01T00:56:50.756Z,98942.06
2023-04-01T00:59:23.392Z,98934.16
2023-04-01T01:01:51.490Z,98945.38
2023-04-01T01:04:26.300Z,98948.84
2023-04-01T01:07:01.064Z,98940.09
2023-04-01T01:09:33.691Z,98940.75
2023-04-01T01:12:08.348Z,98938.13
2023-04-01T01:14:46.811Z,98941.41
2023-04-01T01:17:18.965Z,98936.13
2023-04-01T01:20:15.647Z,98936.94
2023-04-01T01:23:21.689Z,98936.78
2023-04-01T01:25:55.811Z,98930.53
2023-04-01T01:28:35.146Z,98934.13
2023-04-01T01:31:11.352Z,98927.72
2023-04-01T01:33:49.004Z,98935.66
2023-04-01T01:36:19.174Z,98939.09
2023-04-01T01:38:48.150Z,98931.84
2023-04-01T01:41:17.970Z,98930.00
2023-04-01T01:43:48.710Z,98939.28
2023-04-01T01:46:19.841Z,98938.44
2023-04-01T01:48:48.279Z,98943.41
2023-04-01T01:51:16.077Z,98940.56
2023-04-01T01:53:45.710Z,98940.22
2023-04-01T01:56:15.004Z,98940.75
2023-04-01T01:58:45.531Z,98942.72
2023-04-01T02:01:15.748Z,98944.03
2023-04-01T02:03:44.475Z,98941.41
2023-04-01T02:06:14.024Z,98941.41
2023-04-01T02:08:45.056Z,98942.56
2023-04-01T02:11:14.295Z,98943.72
2023-04-01T02:13:44.897Z,98942.56
2023-04-01T02:16:15.241Z,98959.22
2023-04-01T02:18:44.259Z,98949.84
2023-04-01T02:21:12.732Z,98954.28
2023-04-01T02:23:40.650Z,98956.91
2023-04-01T02:26:10.771Z,98959.53
2023-04-01T02:28:40.436Z,98961.38
2023-04-01T02:31:08.944Z,98956.75
2023-04-01T02:33:37.052Z,98959.53
2023-04-01T02:36:05.306Z,98959.22
2023-04-01T02:38:33.080Z,98954.78
2023-04-01T02:41:02.230Z,98957.25
2023-04-01T02:43:31.303Z,98959.22
2023-04-01T02:45:59.053Z,98961.69
2023-04-01T02:48:26.744Z,98966.00
2023-04-01T02:50:54.584Z,98964.16
2023-04-01T02:53:22.358Z,98965.50
2023-04-01T02:55:51.425Z,98968.78
2023-04-01T02:58:19.317Z,98962.50
2023-04-01T03:00:48.439Z,98967.16
2023-04-01T03:03:16.147Z,98965.31
2023-04-01T03:05:43.944Z,98965.66
2023-04-01T03:08:12.726Z,98972.41
2023-04-01T03:10:40.573Z,98967.47
2023-04-01T03:13:08.435Z,98971.75
2023-04-01T03:15:36.259Z,98975.69
2023-04-01T03:18:05.525Z,98981.16
2023-04-01T03:20:33.144Z,98985.63
2023-04-01T03:23:00.796Z,98982.31
2023-04-01T03:25:29.593Z,98987.59
2023-04-01T03:27:57.292Z,98990.06
2023-04-01T03:30:25.032Z,98992.88
2023-04-01T03:32:52.790Z,98994.03
2023-04-01T03:35:21.982Z,98994.53
2023-04-01T03:37:49.701Z,98994.03
2023-04-01T03:40:17.457Z,98996.38
2023-04-01T03:42:45.439Z,98997.84
2023-04-01T03:45:13.892Z,98992.56
2023-04-01T03:47:42.014Z,99001.81
2023-04-01T03:50:11.046Z,99004.75
2023-04-01T03:52:41.043Z,99003.13
2023-04-01T03:55:09.406Z,99007.22
2023-04-01T03:57:37.172Z,99011.03
2023-04-01T04:00:05.387Z,99012.03
2023-04-01T04:02:33.187Z,99009.75
2023-04-01T04:05:00.866Z,99022.25
2023-04-01T04:07:28.546Z,99015.03
2023-04-01T04:09:57.613Z,99010.69
2023-04-01T04:12:25.331Z,99016.66
2023-04-01T04:14:53.071Z,99017.66
2023-04-01T04:17:20.770Z,99019.13
2023-04-01T04:19:48.486Z,99022.25
2023-04-01T04:22:16.194Z,99021.25
2023-04-01T04:24:43.866Z,99020.28
2023-04-01T04:27:12.980Z,99026.53
2023-04-01T04:29:40.731Z,99027.53
2023-04-01T04:32:08.439Z,99025.56
2023-04-01T04:34:36.187Z,99036.28
2023-04-01T04:37:04.259Z,99039.09
2023-04-01T04:39:32.089Z,99042.56
2023-04-01T04:41:59.805Z,99036.44
2023-04-01T04:44:29.052Z,99047.34
2023-04-01T04:46:58.397Z,99047.34
2023-04-01T04:49:26.471Z,99044.38
2023-04-01T04:51:54.429Z,99046.00
2023-04-01T04:54:22.086Z,99046.69
2023-04-01T04:56:49.836Z,99049.00
2023-04-01T04:59:17.532Z,99062.19
2023-04-01T05:01:46.819Z,99067.16
2023-04-01T05:04:14.688Z,99064.69
2023-04-01T05:06:42.445Z,99070.47
2023-04-01T05:09:10.086Z,99065.84
2023-04-01T05:11:37.793Z,99068.16
2023-04-01T05:14:05.550Z,99069.63
2023-04-01T05:16:33.558Z,99074.06
2023-04-01T05:19:02.723Z,99074.06
2023-04-01T05:21:30.647Z,99073.75
2023-04-01T05:23:58.320Z,99075.25
2023-04-01T05:26:25.968Z,99083.00
2023-04-01T05:28:53.659Z,99081.34
2023-04-01T05:31:21.386Z,99081.50
2023-04-01T05:33:49.134Z,99084.81
2023-04-01T05:36:18.622Z,99084.63
2023-04-01T05:38:48.102Z,99092.25
2023-04-01T05:41:16.216Z,99092.06
2023-04-01T05:43:44.560Z,99095.38
2023-04-01T05:46:12.277Z,99095.06
2023-04-01T05:48:40.503Z,99090.44
2023-04-01T05:51:08.169Z,99100.50
2023-04-01T05:53:37.298Z,99101.81
2023-04-01T05:56:05.845Z,99102.47
2023-04-01T05:58:33.758Z,99104.16
2023-04-01T06:01:10.228Z,99104.16
2023-04-01T06:03:39.447Z,99103.84
2023-04-01T06:06:11.212Z,99112.59
2023-04-01T06:08:40.300Z,99112.59
2023-04-01T06:11:18.950Z,99120.34
2023-04-01T06:14:06.929Z,99121.34
2023-04-01T06:16:42.290Z,99123.97
2023-04-01T06:19:26.675Z,99123.31
2023-04-01T06:22:26.919Z,99120.34
2023-04-01T06:25:14.264Z,99129.59
2023-04-01T06:27:51.431Z,99129.25
2023-04-01T06:30:31.357Z,99127.59
2023-04-01T06:33:10.429Z,99136.00
2023-04-01T06:35:52.587Z,99138.81
2023-04-01T06:38:35.983Z,99142.47
2023-04-01T06:41:17.169Z,99136.84
2023-04-01T06:43:55.091Z,99144.75
2023-04-01T06:46:27.304Z,99147.41
2023-04-01T06:49:24.826Z,99139.34
2023-04-01T06:51:56.551Z,99156.03
2023-04-01T06:54:28.539Z,99148.25
2023-04-01T06:57:01.936Z,99154.38
2023-04-01T06:59:31.394Z,99156.66
2023-04-01T07:02:01.686Z,99151.22
2023-04-01T07:04:32.464Z,99153.69
2023-04-01T07:07:02.816Z,99162.94
2023-04-01T07:09:33.746Z,99160.78
2023-04-01T07:12:04.777Z,99159.66
2023-04-01T07:14:35.441Z,99168.88
2023-04-01T07:17:07.244Z,99172.19
2023-04-01T07:19:39.569Z,99179.78
2023-04-01T07:22:15.531Z,99183.59
2023-04-01T07:24:45.265Z,99185.25
2023-04-01T07:27:16.599Z,99186.06
2023-04-01T07:29:44.268Z,99189.84
2023-04-01T07:32:22.295Z,99191.38
2023-04-01T07:35:01.176Z,99188.72
2023-04-01T07:37:33.358Z,99199.47
2023-04-01T07:40:12.067Z,99199.28
2023-04-01T07:42:51.464Z,99208.88
2023-04-01T07:45:25.230Z,99216.78
2023-04-01T07:48:01.969Z,99210.19
2023-04-01T07:50:31.067Z,99219.59
2023-04-01T07:53:07.324Z,99220.09
2023-04-01T07:55:39.009Z,99220.59
2023-04-01T07:58:14.504Z,99228.81
2023-04-01T08:00:46.456Z,99232.97
2023-04-01T08:03:33.262Z,99234.28
2023-04-01T08:06:02.747Z,99233.00
2023-04-01T08:08:38.551Z,99236.28
2023-04-01T08:11:11.852Z,99242.06
2023-04-01T08:13:44.659Z,99247.84
2023-04-01T08:16:17.146Z,99257.09
2023-04-01T08:18:49.428Z,99262.38
2023-04-01T08:21:21.591Z,99261.41
2023-04-01T08:23:50.871Z,99265.72
2023-04-01T08:26:25.793Z,99267.34
2023-04-01T08:28:57.406Z,99265.38
2023-04-01T08:31:28.624Z,99278.41
2023-04-01T08:33:56.948Z,99277.28
2023-04-01T08:36:27.301Z,99278.56
2023-04-01T08:38:57.558Z,99281.06
2023-04-01T08:42:09.875Z,99279.22
2023-04-01T08:45:02.226Z,99290.16
2023-04-01T08:47:44.603Z,99284.03
2023-04-01T08:50:27.269Z,99292.63
2023-04-01T08:53:01.939Z,99294.59
2023-04-01T08:55:40.923Z,99299.72
2023-04-01T08:58:31.837Z,99308.34
2023-04-01T09:01:13.216Z,99308.81
2023-04-01T09:04:00.059Z,99306.69
2023-04-01T09:06:34.458Z,99303.34
2023-04-01T09:09:29.404Z,99314.44
2023-04-01T09:12:09.696Z,99320.38
2023-04-01T09:14:50.592Z,99323.50
2023-04-01T09:17:32.196Z,99321.19
2023-04-01T09:20:11.085Z,99331.44
2023-04-01T09:22:52.124Z,99320.19
2023-04-01T09:25:33.411Z,99338.22
2023-04-01T09:28:07.745Z,99345.69
2023-04-01T09:30:46.956Z,99345.31
2023-04-01T09:33:45.340Z,99344.31
2023-04-01T09:36:23.531Z,99346.31
2023-04-01T09:38:58.626Z,99350.28
2023-04-01T09:41:31.949Z,99361.38
2023-04-01T09:44:08.276Z,99354.91
2023-04-01T09:48:32.976Z,99361.00
2023-04-01T09:51:06.289Z,99363.16
2023-04-01T09:53:44.362Z,99372.25
2023-04-01T09:56:52.335Z,99371.72
2023-04-01T10:00:05.983Z,99383.34
2023-04-01T10:02:53.968Z,99383.69
2023-04-01T10:06:16.303Z,99380.03
2023-04-01T10:09:14.344Z,99387.47
2023-04-01T10:12:17.454Z,99397.38
2023-04-01T10:15:37.061Z,99395.06
2023-04-01T10:18:27.791Z,99397.69
2023-04-01T10:21:13.680Z,99405.16
2023-04-01T10:27:13.081Z,99413.63
2023-04-01T10:30:16.368Z,99409.47
2023-04-01T10:33:17.867Z,99416.78
2023-04-01T10:36:25.501Z,99420.78
2023-04-01T10:39:10.970Z,99419.81
2023-04-01T10:42:21.238Z,99418.81
2023-04-01T10:45:18.070Z,99423.28
2023-04-01T10:49:14.060Z,99427.25
2023-04-01T10:52:11.456Z,99427.78
2023-04-01T10:55:19.873Z,99427.41
2023-04-01T10:58:27.506Z,99431.88
2023-04-01T11:01:24.265Z,99442.28
2023-04-01T11:04:27.446Z,99441.28
2023-04-01T11:07:33.636Z,99438.34
2023-04-01T11:10:51.239Z,99444.94
2023-04-01T11:13:33.693Z,99438.47
2023-04-01T11:16:28.514Z,99445.59
2023-04-01T11:19:33.974Z,99451.50
2023-04-01T11:22:37.466Z,99450.47
2023-04-01T11:25:40.515Z,99460.88
2023-04-01T11:28:20.014Z,99459.38
2023-04-01T11:31:11.884Z,99461.03
2023-04-01T11:33:47.166Z,99470.34
2023-04-01T11:36:23.363Z,99466.88
2023-04-01T11:39:13.807Z,99475.34
2023-04-01T11:41:46.189Z,99480.81
2023-04-01T11:44:19.902Z,99486.63
2023-04-01T11:47:03.797Z,99492.59
2023-04-01T11:49:42.278Z,99497.41
2023-04-01T11:52:21.742Z,99499.56
2023-04-01T11:55:03.897Z,99513.16
2023-04-01T11:58:25.569Z,99511.84
2023-04-01T12:01:01.891Z,99522.13
2023-04-01T12:04:05.066Z,99522.78
2023-04-01T12:06:37.514Z,99532.72
2023-04-01T12:09:12.455Z,99537.50
2023-04-01T12:11:47.753Z,99534.88
2023-04-01T12:14:20.551Z,99530.91
2023-04-01T12:16:56.449Z,99543.63
2023-04-01T12:19:31.893Z,99545.81
2023-04-01T12:22:12.418Z,99556.22
2023-04-01T12:24:50.085Z,99553.59
2023-04-01T12:27:37.768Z,99563.53
2023-04-01T12:30:30.584Z,99572.47
2023-04-01T12:33:11.398Z,99561.88
2023-04-01T12:35:47.462Z,99568.00
2023-04-01T12:38:25.914Z,99577.25
2023-04-01T12:41:12.264Z,99565.53
2023-04-01T12:44:08.911Z,99563.69
2023-04-01T12:46:55.544Z,99570.81
2023-04-01T12:49:57.451Z,99578.94
2023-04-01T12:52:28.800Z,99580.41
2023-04-01T12:55:22.208Z,99586.06
2023-04-01T12:58:21.559Z,99585.88
2023-04-01T13:01:15.246Z,99593.66
2023-04-01T13:04:12.707Z,99594.66
2023-04-01T13:06:52.531Z,99588.72
2023-04-01T13:09:27.807Z,99600.63
2023-04-01T13:12:21.164Z,99604.91
2023-04-01T13:15:09.406Z,99613.03
2023-04-01T13:17:41.667Z,99618.69
2023-04-01T13:20:17.736Z,99618.50
2023-04-01T13:22:58.053Z,99635.41
2023-04-01T13:25:30.308Z,99639.34
2023-04-01T13:28:02.659Z,99641.34
2023-04-01T13:30:35.577Z,99649.94
2023-04-01T13:33:07.672Z,99649.94
2023-04-01T13:35:43.988Z,99650.13
2023-04-01T13:38:40.440Z,99647.78
2023-04-01T13:41:15.287Z,99664.50
2023-04-01T13:43:46.273Z,99664.84
2023-04-01T13:46:38.524Z,99671.47
2023-04-01T13:49:42.397Z,99670.44
2023-04-01T13:52:28.544Z,99678.41
2023-04-01T13:55:16.859Z,99680.88
2023-04-01T13:58:18.307Z,99686.00
2023-04-01T14:00:52.737Z,99692.31
2023-04-01T14:03:31.297Z,99688.81
2023-04-01T14:06:08.199Z,99693.13
2023-04-01T14:08:51.010Z,99700.25
2023-04-01T14:11:26.695Z,99704.53
2023-04-01T14:14:01.828Z,99717.13
2023-04-01T14:17:01.692Z,99707.66
2023-04-01T14:20:14.408Z,99724.72
2023-04-01T14:22:47.296Z,99727.97
2023-04-01T14:25:33.447Z,99729.28
2023-04-01T14:28:14.072Z,99737.53
2023-04-01T14:30:56.481Z,99747.47
2023-04-01T14:33:40.240Z,99743.97
2023-04-01T14:36:30.235Z,99749.28
2023-04-01T14:39:04.420Z,99754.09
2023-04-01T14:41:43.191Z,99756.06
2023-04-01T14:44:24.424Z,99764.69
2023-04-01T14:47:10.687Z,99768.00
2023-04-01T14:49:40.576Z,99767.47
2023-04-01T14:52:14.002Z,99765.94
2023-04-01T14:54:44.191Z,99776.88
2023-04-01T14:57:14.366Z,99779.50
2023-04-01T14:59:49.600Z,99793.03
2023-04-01T15:02:35.713Z,99793.66
2023-04-01T15:05:13.421Z,99794.34
2023-04-01T15:08:03.015Z,99795.34
2023-04-01T15:11:10.675Z,99802.59
2023-04-01T15:13:53.384Z,99807.22
2023-04-01T15:16:28.095Z,99804.56
2023-04-01T15:19:02.341Z,99820.28
2023-04-01T15:21:45.676Z,99823.72
2023-04-01T15:24:17.924Z,99835.28
2023-04-01T15:27:13.939Z,99843.53
2023-04-01T15:30:05.904Z,99847.56
2023-04-01T15:32:47.838Z,99854.59
2023-04-01T15:35:23.481Z,99869.09
2023-04-01T15:37:55.400Z,99872.91
2023-04-01T15:40:26.526Z,99877.63
2023-04-01T15:43:03.951Z,99874.47
2023-04-01T15:45:41.725Z,99883.69
2023-04-01T15:48:28.117Z,99895.56
2023-04-01T15:51:04.012Z,99895.88
2023-04-01T15:53:47.725Z,99906.72
2023-04-01T15:56:30.536Z,99908.16
2023-04-01T15:59:08.820Z,99921.50
2023-04-01T16:01:41.613Z,99917.06
2023-04-01T16:04:26.364Z,99937.69
2023-04-01T16:07:05.987Z,99937.97
2023-04-01T16:09:45.616Z,99944.38
2023-04-01T16:12:18.371Z,99946.50
2023-04-01T16:15:04.316Z,99954.63
2023-04-01T16:17:48.400Z,99954.34
2023-04-01T16:20:21.553Z,99958.00
2023-04-01T16:22:54.594Z,99976.47
2023-04-01T16:25:32.519Z,99972.34
2023-04-01T16:28:11.422Z,99975.66
2023-04-01T16:30:41.037Z,99975.25
2023-04-01T16:33:16.577Z,99986.66
2023-04-01T16:35:49.411Z,99991.25
2023-04-01T16:38:23.507Z,99994.19
2023-04-01T16:41:01.249Z,100003.78
2023-04-01T16:43:31.066Z,100013.53
2023-04-01T16:46:22.119Z,100016.28
2023-04-01T16:49:00.669Z,100028.38
2023-04-01T16:51:36.453Z,100034.09
2023-04-01T16:54:08.578Z,100033.69
2023-04-01T16:56:42.842Z,100032.44
2023-04-01T16:59:18.281Z,100050.25
2023-04-01T17:01:51.555Z,100062.06
2023-04-01T17:04:25.971Z,100059.41
2023-04-01T17:06:59.617Z,100072.09
2023-04-01T17:09:41.747Z,100076.09
2023-04-01T17:12:14.817Z,100079.00
2023-04-01T17:14:48.718Z,100086.00
2023-04-01T17:17:33.880Z,100080.72
2023-04-01T17:20:17.324Z,100106.13
2023-04-01T17:22:52.150Z,100098.19
2023-04-01T17:25:31.658Z,100122.78
2023-04-01T17:28:02.157Z,100128.34
2023-04-01T17:30:33.853Z,100141.69
2023-04-01T17:33:33.262Z,100134.16
2023-04-01T17:36:02.150Z,100142.22
2023-04-01T17:38:47.779Z,100149.72
2023-04-01T17:41:22.799Z,100157.25
2023-04-01T17:43:55.485Z,100169.47
2023-04-01T17:46:31.177Z,100174.88
2023-04-01T17:49:04.172Z,100178.88
2023-04-01T17:51:36.624Z,100186.41
2023-04-01T17:54:19.987Z,100188.31
2023-04-01T17:56:56.748Z,100199.16
2023-04-01T17:59:33.856Z,100199.41
2023-04-01T18:02:05.602Z,100200.50
2023-04-01T18:04:42.790Z,100210.25
2023-04-01T18:07:31.602Z,100215.22
2023-04-01T18:10:09.289Z,100232.00
2023-04-01T18:12:59.091Z,100231.56
2023-04-01T18:15:30.472Z,100235.91
2023-04-01T18:18:06.921Z,100242.94
2023-04-01T18:20:41.333Z,100248.22
2023-04-01T18:23:17.036Z,100259.88
2023-04-01T18:25:49.237Z,100269.59
2023-04-01T18:28:21.385Z,100271.28
2023-04-01T18:30:56.676Z,100279.47
2023-04-01T18:33:28.348Z,100292.91
2023-04-01T18:36:00.767Z,100300.69
2023-04-01T18:38:31.292Z,100299.88
2023-04-01T18:41:16.790Z,100305.91
2023-04-01T18:43:57.193Z,100318.38
2023-04-01T18:46:31.979Z,100327.13
2023-04-01T18:49:09.240Z,100334.47
2023-04-01T18:51:42.034Z,100331.00
2023-04-01T18:54:14.776Z,100353.19
2023-04-01T18:56:45.827Z,100359.19
2023-04-01T18:59:19.135Z,100365.19
2023-04-01T19:01:54.610Z,100367.41
2023-04-01T19:04:26.947Z,100376.78
2023-04-01T19:06:57.929Z,100381.09
2023-04-01T19:09:27.850Z,100387.06
2023-04-01T19:12:20.702Z,100383.25
2023-04-01T19:15:18.952Z,100391.66
2023-04-01T19:17:53.958Z,100400.28
2023-04-01T19:20:26.508Z,100412.50
2023-04-01T19:23:28.542Z,100405.56
2023-04-01T19:25:57.569Z,100423.53
2023-04-01T19:28:36.775Z,100420.06
2023-04-01T19:31:12.742Z,100437.44
2023-04-01T19:33:50.741Z,100441.03
2023-04-01T19:36:23.695Z,100429.28
2023-04-01T19:38:55.695Z,100455.19
2023-04-01T19:41:36.181Z,100457.56
2023-04-01T19:44:17.129Z,100458.75
2023-04-01T19:46:46.831Z,100454.69
2023-04-01T19:49:26.300Z,100462.72
2023-04-01T19:51:58.462Z,100472.44
2023-04-01T19:54:36.686Z,100479.13
2023-04-01T19:57:12.711Z,100478.66
2023-04-01T19:59:47.744Z,100494.22
2023-04-01T20:02:30.647Z,100503.81
2023-04-01T20:05:00.889Z,100502.13
2023-04-01T20:07:32.592Z,100508.13
2023-04-01T20:10:05.793Z,100506.78
2023-04-01T20:12:43.541Z,100522.97
2023-04-01T20:15:26.431Z,100532.91
2023-04-01T20:17:54.514Z,100536.75
2023-04-01T20:20:24.013Z,100550.53
2023-04-01T20:23:02.263Z,100552.66
2023-04-01T20:25:34.278Z,100562.72
2023-04-01T20:28:06.434Z,100568.84
2023-04-01T20:30:48.887Z,100577.66
2023-04-01T20:33:36.543Z,100575.78
2023-04-01T20:36:10.783Z,100581.25
2023-04-01T20:39:16.758Z,100587.59
2023-04-01T20:41:57.696Z,100592.28
2023-04-01T20:44:31.631Z,100590.22
2023-04-01T20:47:04.607Z,100601.34
2023-04-01T20:49:36.861Z,100605.66
2023-04-01T20:52:19.637Z,100616.19
2023-04-01T20:54:58.460Z,100618.44
2023-04-01T20:57:28.426Z,100620.38
2023-04-01T21:00:18.514Z,100625.38
2023-04-01T21:03:09.263Z,100633.91
2023-04-01T21:05:51.072Z,100636.88
2023-04-01T21:08:23.337Z,100637.25
2023-04-01T21:10:58.861Z,100642.03
2023-04-01T21:13:37.099Z,100648.38
2023-04-01T21:16:15.126Z,100657.22
2023-04-01T21:19:02.390Z,100665.97
2023-04-01T21:21:44.045Z,100681.88
2023-04-01T21:24:32.902Z,100684.72
2023-04-01T21:27:05.450Z,100689.50
2023-04-01T21:29:43.529Z,100705.31
2023-04-01T21:32:22.129Z,100703.13
2023-04-01T21:34:57.580Z,100719.88
2023-04-01T21:37:43.823Z,100720.06
2023-04-01T21:40:38.712Z,100728.94
2023-04-01T21:43:17.241Z,100740.94
2023-04-01T21:45:56.581Z,100743.56
2023-04-01T21:48:35.872Z,100744.72
2023-04-01T21:51:39.209Z,100756.94
2023-04-01T21:54:39.289Z,100761.81
2023-04-01T21:57:32.193Z,100767.50
2023-04-01T22:00:25.465Z,100766.88
2023-04-01T22:03:28.083Z,100782.06
2023-04-01T22:06:03.223Z,100785.09
2023-04-01T22:08:41.884Z,100789.66
2023-04-01T22:11:22.737Z,100788.38
2023-04-01T22:13:52.855Z,100795.63
2023-04-01T22:16:26.578Z,100801.84
2023-04-01T22:19:00.946Z,100807.56
2023-04-01T22:21:32.083Z,100812.28
2023-04-01T22:24:04.484Z,100823.53
2023-04-01T22:26:37.796Z,100821.25
2023-04-01T22:29:08.803Z,100825.03
2023-04-01T22:31:42.268Z,100825.22
2023-04-01T22:34:13.854Z,100826.16
2023-04-01T22:36:48.740Z,100840.28
2023-04-01T22:39:26.226Z,100846.25
2023-04-01T22:42:03.953Z,100845.53
2023-04-01T22:44:42.197Z,100851.09
2023-04-01T22:47:16.704Z,100853.00
2023-04-01T22:49:49.402Z,100853.41
2023-04-01T22:52:21.266Z,100869.19
2023-04-01T22:54:51.012Z,100867.72
2023-04-01T22:57:37.608Z,100877.41
2023-04-01T23:00:09.219Z,100869.91
2023-04-01T23:02:39.653Z,100869.63
2023-04-01T23:05:08.417Z,100882.13
2023-04-01T23:07:47.453Z,100891.69
2023-04-01T23:10:20.280Z,100896.09
2023-04-01T23:12:50.077Z,100893.78
2023-04-01T23:15:18.630Z,100894.94
2023-04-01T23:17:54.817Z,100912.28
2023-04-01T23:20:28.184Z,100912.03
2023-04-01T23:23:14.115Z,100929.41
2023-04-01T23:25:49.012Z,100934.13
2023-04-01T23:28:30.297Z,100941.47
2023-04-01T23:30:58.013Z,100944.09
2023-04-01T23:33:29.304Z,100943.47
2023-04-01T23:36:06.023Z,100949.44
2023-04-01T23:38:35.792Z,100958.28
2023-04-01T23:41:04.068Z,100957.22
2023-04-01T23:43:35.679Z,100959.75
2023-04-01T23:46:05.603Z,100963.16
2023-04-01T23:48:36.283Z,100973.84
2023-04-01T23:51:04.817Z,100974.91
2023-04-01T23:53:35.509Z,100980.50
2023-04-01T23:56:04.378Z,100984.72
2023-04-01T23:58:45.333Z,100986.81
